sensor_id;sensor_type;location;lat;lon;timestamp;P1;durP1;ratioP1;P2;durP2;ratioP2
11121;SDS011;5615;49.304;10.576;2023-07-16T00:02:23;19.05;;;14.98;;
11121;SDS011;5615;49.304;10.576;2023-07-16T00:04:50;14.65;;;13.23;;
11121;SDS011;5615;49.304;10.576;2023-07-16T00:07:17;16.58;;;14.30;;
11121;SDS011;5615;49.304;10.576;2023-07-16T00:09:43;16.42;;;14.27;;
11121;SDS011;5615;49.304;10.576;2023-07-16T00:12:10;18.52;;;15.13;;
11121;SDS011;5615;49.304;10.576;2023-07-16T00:14:38;17.52;;;15.60;;
11121;SDS011;5615;49.304;10.576;2023-07-16T00:17:05;16.33;;;14.40;;
11121;SDS011;5615;49.304;10.576;2023-07-16T00:19:31;16.70;;;14.90;;
11121;SDS011;5615;49.304;10.576;2023-07-16T00:21:58;19.48;;;15.25;;
11121;SDS011;5615;49.304;10.576;2023-07-16T00:24:25;19.80;;;14.90;;
11121;SDS011;5615;49.304;10.576;2023-07-16T00:26:51;22.42;;;15.48;;
11121;SDS011;5615;49.304;10.576;2023-07-16T00:29:18;18.85;;;14.85;;
11121;SDS011;5615;49.304;10.576;2023-07-16T00:31:46;14.57;;;13.07;;
11121;SDS011;5615;49.304;10.576;2023-07-16T00:34:13;13.10;;;11.70;;
11121;SDS011;5615;49.304;10.576;2023-07-16T00:36:39;17.58;;;11.50;;
11121;SDS011;5615;49.304;10.576;2023-07-16T00:39:06;14.18;;;11.00;;
11121;SDS011;5615;49.304;10.576;2023-07-16T00:41:33;10.57;;;9.57;;
11121;SDS011;5615;49.304;10.576;2023-07-16T00:44:00;12.15;;;10.20;;
11121;SDS011;5615;49.304;10.576;2023-07-16T00:46:27;10.70;;;9.63;;
11121;SDS011;5615;49.304;10.576;2023-07-16T00:48:55;10.20;;;8.98;;
11121;SDS011;5615;49.304;10.576;2023-07-16T00:51:22;9.20;;;7.70;;
11121;SDS011;5615;49.304;10.576;2023-07-16T00:53:51;8.35;;;7.40;;
11121;SDS011;5615;49.304;10.576;2023-07-16T00:56:18;7.43;;;6.68;;
11121;SDS011;5615;49.304;10.576;2023-07-16T00:58:45;10.25;;;6.72;;
11121;SDS011;5615;49.304;10.576;2023-07-16T01:01:12;7.78;;;6.80;;
11121;SDS011;5615;49.304;10.576;2023-07-16T01:03:39;7.82;;;7.00;;
11121;SDS011;5615;49.304;10.576;2023-07-16T01:06:10;7.95;;;6.63;;
11121;SDS011;5615;49.304;10.576;2023-07-16T01:08:41;7.15;;;5.75;;
11121;SDS011;5615;49.304;10.576;2023-07-16T01:11:11;9.48;;;5.82;;
11121;SDS011;5615;49.304;10.576;2023-07-16T01:13:38;7.75;;;6.15;;
11121;SDS011;5615;49.304;10.576;2023-07-16T01:16:06;7.80;;;5.63;;
11121;SDS011;5615;49.304;10.576;2023-07-16T01:18:43;10.52;;;5.93;;
11121;SDS011;5615;49.304;10.576;2023-07-16T01:21:11;7.65;;;6.00;;
11121;SDS011;5615;49.304;10.576;2023-07-16T01:23:50;7.25;;;5.38;;
11121;SDS011;5615;49.304;10.576;2023-07-16T01:26:36;6.65;;;5.03;;
11121;SDS011;5615;49.304;10.576;2023-07-16T01:32:07;6.75;;;5.50;;
11121;SDS011;5615;49.304;10.576;2023-07-16T01:34:37;7.78;;;6.55;;
11121;SDS011;5615;49.304;10.576;2023-07-16T01:37:05;7.22;;;5.43;;
11121;SDS011;5615;49.304;10.576;2023-07-16T01:39:32;6.30;;;5.68;;
11121;SDS011;5615;49.304;10.576;2023-07-16T01:41:58;8.00;;;5.72;;
11121;SDS011;5615;49.304;10.576;2023-07-16T01:44:25;6.72;;;6.03;;
11121;SDS011;5615;49.304;10.576;2023-07-16T01:46:59;6.40;;;5.65;;
11121;SDS011;5615;49.304;10.576;2023-07-16T01:49:31;9.13;;;6.22;;
11121;SDS011;5615;49.304;10.576;2023-07-16T01:51:59;6.20;;;5.60;;
11121;SDS011;5615;49.304;10.576;2023-07-16T01:54:26;6.72;;;5.22;;
11121;SDS011;5615;49.304;10.576;2023-07-16T01:56:52;5.47;;;4.90;;
11121;SDS011;5615;49.304;10.576;2023-07-16T01:59:19;7.82;;;5.40;;
11121;SDS011;5615;49.304;10.576;2023-07-16T02:01:45;5.85;;;5.18;;
11121;SDS011;5615;49.304;10.576;2023-07-16T02:04:13;6.85;;;4.90;;
11121;SDS011;5615;49.304;10.576;2023-07-16T02:06:40;7.38;;;5.20;;
11121;SDS011;5615;49.304;10.576;2023-07-16T02:09:07;5.43;;;4.93;;
11121;SDS011;5615;49.304;10.576;2023-07-16T02:11:34;6.18;;;4.47;;
11121;SDS011;5615;49.304;10.576;2023-07-16T02:14:01;6.18;;;4.75;;
11121;SDS011;5615;49.304;10.576;2023-07-16T02:16:27;5.68;;;4.10;;
11121;SDS011;5615;49.304;10.576;2023-07-16T02:18:54;6.70;;;4.53;;
11121;SDS011;5615;49.304;10.576;2023-07-16T02:21:22;7.85;;;4.53;;
11121;SDS011;5615;49.304;10.576;2023-07-16T02:23:48;4.88;;;4.45;;
11121;SDS011;5615;49.304;10.576;2023-07-16T02:26:15;5.75;;;3.80;;
11121;SDS011;5615;49.304;10.576;2023-07-16T02:28:42;4.85;;;4.28;;
11121;SDS011;5615;49.304;10.576;2023-07-16T02:31:08;3.78;;;3.42;;
11121;SDS011;5615;49.304;10.576;2023-07-16T02:33:35;5.10;;;3.60;;
11121;SDS011;5615;49.304;10.576;2023-07-16T02:36:02;7.00;;;3.97;;
11121;SDS011;5615;49.304;10.576;2023-07-16T02:38:30;4.47;;;4.07;;
11121;SDS011;5615;49.304;10.576;2023-07-16T02:40:57;6.05;;;3.85;;
11121;SDS011;5615;49.304;10.576;2023-07-16T02:43:23;4.00;;;3.60;;
11121;SDS011;5615;49.304;10.576;2023-07-16T02:45:50;6.45;;;4.00;;
11121;SDS011;5615;49.304;10.576;2023-07-16T02:48:17;4.40;;;4.00;;
11121;SDS011;5615;49.304;10.576;2023-07-16T02:50:43;5.05;;;3.88;;
11121;SDS011;5615;49.304;10.576;2023-07-16T02:53:10;6.13;;;3.40;;
11121;SDS011;5615;49.304;10.576;2023-07-16T02:55:38;4.00;;;3.33;;
11121;SDS011;5615;49.304;10.576;2023-07-16T02:58:04;3.42;;;3.13;;
11121;SDS011;5615;49.304;10.576;2023-07-16T03:00:31;3.58;;;3.20;;
11121;SDS011;5615;49.304;10.576;2023-07-16T03:02:58;4.35;;;3.65;;
11121;SDS011;5615;49.304;10.576;2023-07-16T03:05:25;5.82;;;3.70;;
11121;SDS011;5615;49.304;10.576;2023-07-16T03:07:52;5.78;;;3.65;;
11121;SDS011;5615;49.304;10.576;2023-07-16T03:10:19;4.63;;;3.47;;
11121;SDS011;5615;49.304;10.576;2023-07-16T03:12:47;3.40;;;3.13;;
11121;SDS011;5615;49.304;10.576;2023-07-16T03:15:14;5.18;;;3.22;;
11121;SDS011;5615;49.304;10.576;2023-07-16T03:17:41;3.95;;;3.10;;
11121;SDS011;5615;49.304;10.576;2023-07-16T03:20:08;2.83;;;2.53;;
11121;SDS011;5615;49.304;10.576;2023-07-16T03:22:35;3.70;;;2.60;;
11121;SDS011;5615;49.304;10.576;2023-07-16T03:25:01;5.05;;;2.65;;
11121;SDS011;5615;49.304;10.576;2023-07-16T03:27:28;2.92;;;2.30;;
11121;SDS011;5615;49.304;10.576;2023-07-16T03:29:56;3.35;;;2.58;;
11121;SDS011;5615;49.304;10.576;2023-07-16T03:32:23;4.78;;;2.45;;
11121;SDS011;5615;49.304;10.576;2023-07-16T03:34:50;3.00;;;2.33;;
11121;SDS011;5615;49.304;10.576;2023-07-16T03:37:16;4.45;;;2.20;;
11121;SDS011;5615;49.304;10.576;2023-07-16T03:39:43;4.03;;;2.03;;
11121;SDS011;5615;49.304;10.576;2023-07-16T03:42:10;4.15;;;2.40;;
11121;SDS011;5615;49.304;10.576;2023-07-16T03:44:36;3.97;;;2.38;;
11121;SDS011;5615;49.304;10.576;2023-07-16T03:47:04;5.13;;;2.28;;
11121;SDS011;5615;49.304;10.576;2023-07-16T03:49:31;2.85;;;2.40;;
11121;SDS011;5615;49.304;10.576;2023-07-16T03:51:58;3.05;;;2.65;;
11121;SDS011;5615;49.304;10.576;2023-07-16T03:54:24;2.63;;;2.30;;
11121;SDS011;5615;49.304;10.576;2023-07-16T03:56:51;4.27;;;2.60;;
11121;SDS011;5615;49.304;10.576;2023-07-16T03:59:17;4.32;;;2.10;;
11121;SDS011;5615;49.304;10.576;2023-07-16T04:01:44;3.10;;;2.55;;
11121;SDS011;5615;49.304;10.576;2023-07-16T04:04:12;5.05;;;2.75;;
11121;SDS011;5615;49.304;10.576;2023-07-16T04:06:39;3.47;;;2.50;;
11121;SDS011;5615;49.304;10.576;2023-07-16T04:09:05;3.60;;;2.60;;
11121;SDS011;5615;49.304;10.576;2023-07-16T04:11:32;2.90;;;2.30;;
11121;SDS011;5615;49.304;10.576;2023-07-16T04:13:58;7.03;;;2.67;;
11121;SDS011;5615;49.304;10.576;2023-07-16T04:16:25;3.97;;;2.53;;
11121;SDS011;5615;49.304;10.576;2023-07-16T04:18:52;3.23;;;2.57;;
11121;SDS011;5615;49.304;10.576;2023-07-16T04:21:20;4.10;;;2.67;;
11121;SDS011;5615;49.304;10.576;2023-07-16T04:23:46;3.25;;;2.38;;
11121;SDS011;5615;49.304;10.576;2023-07-16T04:26:13;8.48;;;2.65;;
11121;SDS011;5615;49.304;10.576;2023-07-16T04:28:39;5.45;;;2.55;;
11121;SDS011;5615;49.304;10.576;2023-07-16T04:31:06;3.45;;;2.67;;
11121;SDS011;5615;49.304;10.576;2023-07-16T04:33:33;3.03;;;2.40;;
11121;SDS011;5615;49.304;10.576;2023-07-16T04:35:59;3.83;;;2.25;;
11121;SDS011;5615;49.304;10.576;2023-07-16T04:38:27;3.17;;;2.08;;
11121;SDS011;5615;49.304;10.576;2023-07-16T04:40:54;3.38;;;2.40;;
11121;SDS011;5615;49.304;10.576;2023-07-16T04:43:20;4.18;;;2.25;;
11121;SDS011;5615;49.304;10.576;2023-07-16T04:45:47;3.13;;;2.38;;
11121;SDS011;5615;49.304;10.576;2023-07-16T04:48:13;5.78;;;2.30;;
11121;SDS011;5615;49.304;10.576;2023-07-16T04:50:40;4.38;;;2.38;;
11121;SDS011;5615;49.304;10.576;2023-07-16T04:53:07;4.57;;;2.40;;
11121;SDS011;5615;49.304;10.576;2023-07-16T04:55:38;5.55;;;2.22;;
11121;SDS011;5615;49.304;10.576;2023-07-16T04:58:05;3.08;;;2.47;;
11121;SDS011;5615;49.304;10.576;2023-07-16T05:00:32;3.00;;;2.20;;
11121;SDS011;5615;49.304;10.576;2023-07-16T05:02:58;3.67;;;2.38;;
11121;SDS011;5615;49.304;10.576;2023-07-16T05:05:25;3.42;;;2.38;;
11121;SDS011;5615;49.304;10.576;2023-07-16T05:07:52;4.78;;;2.25;;
11121;SDS011;5615;49.304;10.576;2023-07-16T05:10:18;5.28;;;2.35;;
11121;SDS011;5615;49.304;10.576;2023-07-16T05:12:46;4.20;;;2.45;;
11121;SDS011;5615;49.304;10.576;2023-07-16T05:15:13;5.05;;;2.55;;
11121;SDS011;5615;49.304;10.576;2023-07-16T05:17:40;3.25;;;2.28;;
11121;SDS011;5615;49.304;10.576;2023-07-16T05:20:07;3.53;;;2.45;;
11121;SDS011;5615;49.304;10.576;2023-07-16T05:22:35;6.97;;;2.42;;
11121;SDS011;5615;49.304;10.576;2023-07-16T05:25:02;4.22;;;2.10;;
11121;SDS011;5615;49.304;10.576;2023-07-16T05:27:29;2.80;;;2.10;;
11121;SDS011;5615;49.304;10.576;2023-07-16T05:29:57;6.28;;;2.40;;
11121;SDS011;5615;49.304;10.576;2023-07-16T05:32:23;2.55;;;2.10;;
11121;SDS011;5615;49.304;10.576;2023-07-16T05:34:50;5.85;;;2.13;;
11121;SDS011;5615;49.304;10.576;2023-07-16T05:37:16;6.35;;;2.05;;
11121;SDS011;5615;49.304;10.576;2023-07-16T05:39:43;4.75;;;2.30;;
11121;SDS011;5615;49.304;10.576;2023-07-16T05:42:10;4.28;;;2.30;;
11121;SDS011;5615;49.304;10.576;2023-07-16T05:44:36;3.38;;;2.70;;
11121;SDS011;5615;49.304;10.576;2023-07-16T05:47:05;4.70;;;2.22;;
11121;SDS011;5615;49.304;10.576;2023-07-16T05:49:31;5.03;;;2.67;;
11121;SDS011;5615;49.304;10.576;2023-07-16T05:51:58;3.92;;;2.30;;
11121;SDS011;5615;49.304;10.576;2023-07-16T05:54:25;5.25;;;2.60;;
11121;SDS011;5615;49.304;10.576;2023-07-16T05:56:51;5.85;;;2.40;;
11121;SDS011;5615;49.304;10.576;2023-07-16T05:59:18;5.50;;;2.58;;
11121;SDS011;5615;49.304;10.576;2023-07-16T06:01:46;4.53;;;2.10;;
11121;SDS011;5615;49.304;10.576;2023-07-16T06:04:14;4.82;;;2.33;;
11121;SDS011;5615;49.304;10.576;2023-07-16T06:06:40;5.07;;;2.80;;
11121;SDS011;5615;49.304;10.576;2023-07-16T06:09:07;4.13;;;2.55;;
11121;SDS011;5615;49.304;10.576;2023-07-16T06:11:33;5.07;;;2.58;;
11121;SDS011;5615;49.304;10.576;2023-07-16T06:14:00;5.88;;;2.83;;
11121;SDS011;5615;49.304;10.576;2023-07-16T06:16:27;7.97;;;2.35;;
11121;SDS011;5615;49.304;10.576;2023-07-16T06:18:53;3.97;;;2.90;;
11121;SDS011;5615;49.304;10.576;2023-07-16T06:21:21;6.95;;;2.70;;
11121;SDS011;5615;49.304;10.576;2023-07-16T06:23:48;6.82;;;2.75;;
11121;SDS011;5615;49.304;10.576;2023-07-16T06:26:14;7.60;;;2.92;;
11121;SDS011;5615;49.304;10.576;2023-07-16T06:28:41;5.38;;;2.50;;
11121;SDS011;5615;49.304;10.576;2023-07-16T06:31:08;8.10;;;2.60;;
11121;SDS011;5615;49.304;10.576;2023-07-16T06:33:34;5.70;;;2.50;;
11121;SDS011;5615;49.304;10.576;2023-07-16T06:36:01;7.45;;;2.75;;
11121;SDS011;5615;49.304;10.576;2023-07-16T06:38:29;4.72;;;2.70;;
11121;SDS011;5615;49.304;10.576;2023-07-16T06:40:56;6.45;;;2.63;;
11121;SDS011;5615;49.304;10.576;2023-07-16T06:43:22;8.55;;;2.70;;
11121;SDS011;5615;49.304;10.576;2023-07-16T06:45:49;7.20;;;2.38;;
11121;SDS011;5615;49.304;10.576;2023-07-16T06:48:16;6.85;;;2.83;;
11121;SDS011;5615;49.304;10.576;2023-07-16T06:50:43;3.38;;;2.55;;
11121;SDS011;5615;49.304;10.576;2023-07-16T06:53:10;5.78;;;2.97;;
11121;SDS011;5615;49.304;10.576;2023-07-16T06:55:38;5.93;;;2.95;;
11121;SDS011;5615;49.304;10.576;2023-07-16T06:58:04;3.80;;;2.60;;
11121;SDS011;5615;49.304;10.576;2023-07-16T07:00:31;6.72;;;2.72;;
11121;SDS011;5615;49.304;10.576;2023-07-16T07:02:58;8.65;;;2.90;;
11121;SDS011;5615;49.304;10.576;2023-07-16T07:05:24;3.58;;;2.70;;
11121;SDS011;5615;49.304;10.576;2023-07-16T07:07:51;8.32;;;2.97;;
11121;SDS011;5615;49.304;10.576;2023-07-16T07:10:18;8.52;;;2.65;;
11121;SDS011;5615;49.304;10.576;2023-07-16T07:12:46;7.38;;;2.55;;
11121;SDS011;5615;49.304;10.576;2023-07-16T07:15:12;5.75;;;2.58;;
11121;SDS011;5615;49.304;10.576;2023-07-16T07:17:41;9.30;;;2.95;;
11121;SDS011;5615;49.304;10.576;2023-07-16T07:20:11;8.98;;;3.22;;
11121;SDS011;5615;49.304;10.576;2023-07-16T07:22:39;6.15;;;2.70;;
11121;SDS011;5615;49.304;10.576;2023-07-16T07:25:06;4.82;;;2.38;;
11121;SDS011;5615;49.304;10.576;2023-07-16T07:27:33;8.15;;;2.88;;
11121;SDS011;5615;49.304;10.576;2023-07-16T07:30:00;5.45;;;2.60;;
11121;SDS011;5615;49.304;10.576;2023-07-16T07:32:28;4.72;;;2.63;;
11121;SDS011;5615;49.304;10.576;2023-07-16T07:34:55;7.45;;;2.55;;
11121;SDS011;5615;49.304;10.576;2023-07-16T07:37:22;8.30;;;2.70;;
11121;SDS011;5615;49.304;10.576;2023-07-16T07:39:51;6.45;;;2.55;;
11121;SDS011;5615;49.304;10.576;2023-07-16T07:42:18;4.55;;;2.60;;
11121;SDS011;5615;49.304;10.576;2023-07-16T07:44:45;6.15;;;2.70;;
11121;SDS011;5615;49.304;10.576;2023-07-16T07:47:13;7.32;;;2.58;;
11121;SDS011;5615;49.304;10.576;2023-07-16T07:49:39;5.88;;;2.50;;
11121;SDS011;5615;49.304;10.576;2023-07-16T07:52:07;6.38;;;2.92;;
11121;SDS011;5615;49.304;10.576;2023-07-16T07:54:34;7.05;;;2.90;;
11121;SDS011;5615;49.304;10.576;2023-07-16T07:57:00;4.72;;;2.85;;
11121;SDS011;5615;49.304;10.576;2023-07-16T07:59:28;4.28;;;2.70;;
11121;SDS011;5615;49.304;10.576;2023-07-16T08:01:55;5.05;;;2.70;;
11121;SDS011;5615;49.304;10.576;2023-07-16T08:04:23;7.65;;;2.80;;
11121;SDS011;5615;49.304;10.576;2023-07-16T08:06:50;6.80;;;2.90;;
11121;SDS011;5615;49.304;10.576;2023-07-16T08:09:19;6.68;;;2.80;;
11121;SDS011;5615;49.304;10.576;2023-07-16T08:11:45;9.98;;;2.70;;
11121;SDS011;5615;49.304;10.576;2023-07-16T08:14:12;6.60;;;2.67;;
11121;SDS011;5615;49.304;10.576;2023-07-16T08:16:39;7.00;;;2.53;;
11121;SDS011;5615;49.304;10.576;2023-07-16T08:19:05;4.70;;;2.60;;
11121;SDS011;5615;49.304;10.576;2023-07-16T08:21:33;4.88;;;2.78;;
11121;SDS011;5615;49.304;10.576;2023-07-16T08:24:01;5.38;;;2.53;;
11121;SDS011;5615;49.304;10.576;2023-07-16T08:26:27;8.73;;;2.75;;
11121;SDS011;5615;49.304;10.576;2023-07-16T08:28:54;6.72;;;3.05;;
11121;SDS011;5615;49.304;10.576;2023-07-16T08:31:20;5.10;;;2.53;;
11121;SDS011;5615;49.304;10.576;2023-07-16T08:33:47;6.80;;;2.80;;
11121;SDS011;5615;49.304;10.576;2023-07-16T08:36:14;8.35;;;3.20;;
11121;SDS011;5615;49.304;10.576;2023-07-16T08:38:41;6.30;;;3.38;;
11121;SDS011;5615;49.304;10.576;2023-07-16T08:41:08;4.03;;;2.45;;
11121;SDS011;5615;49.304;10.576;2023-07-16T08:43:35;4.63;;;2.50;;
11121;SDS011;5615;49.304;10.576;2023-07-16T08:46:01;4.10;;;2.30;;
11121;SDS011;5615;49.304;10.576;2023-07-16T08:48:28;3.70;;;2.40;;
11121;SDS011;5615;49.304;10.576;2023-07-16T08:50:55;7.15;;;2.95;;
11121;SDS011;5615;49.304;10.576;2023-07-16T08:53:23;5.03;;;2.58;;
11121;SDS011;5615;49.304;10.576;2023-07-16T08:55:51;5.38;;;2.78;;
11121;SDS011;5615;49.304;10.576;2023-07-16T08:58:17;5.50;;;2.42;;
11121;SDS011;5615;49.304;10.576;2023-07-16T09:00:47;5.15;;;2.80;;
11121;SDS011;5615;49.304;10.576;2023-07-16T09:03:14;7.05;;;2.72;;
11121;SDS011;5615;49.304;10.576;2023-07-16T09:05:42;6.25;;;2.72;;
11121;SDS011;5615;49.304;10.576;2023-07-16T09:08:09;4.22;;;2.50;;
11121;SDS011;5615;49.304;10.576;2023-07-16T09:10:39;4.05;;;2.30;;
11121;SDS011;5615;49.304;10.576;2023-07-16T09:13:07;5.13;;;2.88;;
11121;SDS011;5615;49.304;10.576;2023-07-16T09:15:34;3.67;;;2.28;;
11121;SDS011;5615;49.304;10.576;2023-07-16T09:18:02;3.65;;;2.10;;
11121;SDS011;5615;49.304;10.576;2023-07-16T09:20:29;4.70;;;2.42;;
11121;SDS011;5615;49.304;10.576;2023-07-16T09:22:56;5.65;;;2.53;;
11121;SDS011;5615;49.304;10.576;2023-07-16T09:25:27;4.18;;;2.63;;
11121;SDS011;5615;49.304;10.576;2023-07-16T09:27:53;8.00;;;3.05;;
11121;SDS011;5615;49.304;10.576;2023-07-16T09:30:21;4.40;;;2.50;;
11121;SDS011;5615;49.304;10.576;2023-07-16T09:32:48;6.55;;;2.95;;
11121;SDS011;5615;49.304;10.576;2023-07-16T09:35:15;5.20;;;2.60;;
11121;SDS011;5615;49.304;10.576;2023-07-16T09:37:43;3.83;;;2.60;;
11121;SDS011;5615;49.304;10.576;2023-07-16T09:40:10;5.40;;;2.50;;
11121;SDS011;5615;49.304;10.576;2023-07-16T09:42:38;3.90;;;2.03;;
11121;SDS011;5615;49.304;10.576;2023-07-16T09:45:06;5.85;;;2.67;;
11121;SDS011;5615;49.304;10.576;2023-07-16T09:47:35;8.88;;;2.40;;
11121;SDS011;5615;49.304;10.576;2023-07-16T09:50:02;6.45;;;2.35;;
11121;SDS011;5615;49.304;10.576;2023-07-16T09:52:30;6.55;;;2.78;;
11121;SDS011;5615;49.304;10.576;2023-07-16T09:54:58;5.95;;;2.58;;
11121;SDS011;5615;49.304;10.576;2023-07-16T09:57:28;6.20;;;2.40;;
11121;SDS011;5615;49.304;10.576;2023-07-16T09:59:58;4.82;;;2.35;;
11121;SDS011;5615;49.304;10.576;2023-07-16T10:02:30;6.35;;;2.78;;
11121;SDS011;5615;49.304;10.576;2023-07-16T10:04:59;9.90;;;2.78;;
11121;SDS011;5615;49.304;10.576;2023-07-16T10:07:36;5.05;;;2.55;;
11121;SDS011;5615;49.304;10.576;2023-07-16T10:10:07;4.60;;;2.30;;
11121;SDS011;5615;49.304;10.576;2023-07-16T10:12:34;4.00;;;2.35;;
11121;SDS011;5615;49.304;10.576;2023-07-16T10:15:02;3.42;;;2.58;;
11121;SDS011;5615;49.304;10.576;2023-07-16T10:17:30;4.93;;;2.33;;
11121;SDS011;5615;49.304;10.576;2023-07-16T10:19:58;4.35;;;2.35;;
11121;SDS011;5615;49.304;10.576;2023-07-16T10:22:33;8.40;;;2.35;;
11121;SDS011;5615;49.304;10.576;2023-07-16T10:25:02;4.95;;;2.40;;
11121;SDS011;5615;49.304;10.576;2023-07-16T10:27:29;5.53;;;2.63;;
11121;SDS011;5615;49.304;10.576;2023-07-16T10:29:57;4.38;;;2.17;;
11121;SDS011;5615;49.304;10.576;2023-07-16T10:32:28;4.18;;;2.53;;
11121;SDS011;5615;49.304;10.576;2023-07-16T10:34:55;4.28;;;2.95;;
11121;SDS011;5615;49.304;10.576;2023-07-16T10:37:24;5.85;;;2.60;;
11121;SDS011;5615;49.304;10.576;2023-07-16T10:39:51;5.60;;;3.00;;
11121;SDS011;5615;49.304;10.576;2023-07-16T10:42:19;4.68;;;2.67;;
11121;SDS011;5615;49.304;10.576;2023-07-16T10:44:48;5.25;;;2.60;;
11121;SDS011;5615;49.304;10.576;2023-07-16T10:47:20;5.00;;;2.45;;
11121;SDS011;5615;49.304;10.576;2023-07-16T10:49:48;6.47;;;2.72;;
11121;SDS011;5615;49.304;10.576;2023-07-16T10:52:16;3.78;;;2.25;;
11121;SDS011;5615;49.304;10.576;2023-07-16T10:54:45;4.75;;;2.22;;
11121;SDS011;5615;49.304;10.576;2023-07-16T10:57:12;3.88;;;2.30;;
11121;SDS011;5615;49.304;10.576;2023-07-16T10:59:41;3.78;;;2.85;;
11121;SDS011;5615;49.304;10.576;2023-07-16T11:02:10;6.30;;;3.05;;
11121;SDS011;5615;49.304;10.576;2023-07-16T11:04:38;4.75;;;2.60;;
11121;SDS011;5615;49.304;10.576;2023-07-16T11:07:06;5.30;;;2.42;;
11121;SDS011;5615;49.304;10.576;2023-07-16T11:09:34;3.80;;;2.40;;
11121;SDS011;5615;49.304;10.576;2023-07-16T11:12:08;4.38;;;2.38;;
11121;SDS011;5615;49.304;10.576;2023-07-16T11:14:36;5.75;;;2.63;;
11121;SDS011;5615;49.304;10.576;2023-07-16T11:17:04;7.07;;;2.80;;
11121;SDS011;5615;49.304;10.576;2023-07-16T11:19:32;4.28;;;2.55;;
11121;SDS011;5615;49.304;10.576;2023-07-16T11:21:59;3.88;;;2.25;;
11121;SDS011;5615;49.304;10.576;2023-07-16T11:24:27;5.20;;;2.63;;
11121;SDS011;5615;49.304;10.576;2023-07-16T11:26:54;6.05;;;2.38;;
11121;SDS011;5615;49.304;10.576;2023-07-16T11:29:23;4.05;;;2.13;;
11121;SDS011;5615;49.304;10.576;2023-07-16T11:31:50;3.40;;;2.53;;
11121;SDS011;5615;49.304;10.576;2023-07-16T11:34:19;4.03;;;2.28;;
11121;SDS011;5615;49.304;10.576;2023-07-16T11:36:46;3.40;;;2.10;;
11121;SDS011;5615;49.304;10.576;2023-07-16T11:39:13;5.43;;;2.25;;
11121;SDS011;5615;49.304;10.576;2023-07-16T11:41:40;3.28;;;2.20;;
11121;SDS011;5615;49.304;10.576;2023-07-16T11:44:06;3.55;;;2.47;;
11121;SDS011;5615;49.304;10.576;2023-07-16T11:46:35;4.50;;;2.30;;
11121;SDS011;5615;49.304;10.576;2023-07-16T11:49:02;4.65;;;2.40;;
11121;SDS011;5615;49.304;10.576;2023-07-16T11:51:29;5.78;;;2.47;;
11121;SDS011;5615;49.304;10.576;2023-07-16T11:53:56;3.53;;;2.17;;
11121;SDS011;5615;49.304;10.576;2023-07-16T11:56:23;3.20;;;2.25;;
11121;SDS011;5615;49.304;10.576;2023-07-16T11:58:49;3.42;;;2.20;;
11121;SDS011;5615;49.304;10.576;2023-07-16T12:01:16;4.15;;;2.25;;
11121;SDS011;5615;49.304;10.576;2023-07-16T12:03:44;3.05;;;2.13;;
11121;SDS011;5615;49.304;10.576;2023-07-16T12:06:11;4.40;;;2.30;;
11121;SDS011;5615;49.304;10.576;2023-07-16T12:08:37;5.60;;;2.13;;
11121;SDS011;5615;49.304;10.576;2023-07-16T12:11:04;5.05;;;2.50;;
11121;SDS011;5615;49.304;10.576;2023-07-16T12:13:31;3.90;;;2.47;;
11121;SDS011;5615;49.304;10.576;2023-07-16T12:15:57;3.63;;;2.50;;
11121;SDS011;5615;49.304;10.576;2023-07-16T12:18:24;5.65;;;2.38;;
11121;SDS011;5615;49.304;10.576;2023-07-16T12:20:53;3.60;;;2.30;;
11121;SDS011;5615;49.304;10.576;2023-07-16T12:23:19;3.13;;;2.40;;
11121;SDS011;5615;49.304;10.576;2023-07-16T12:25:46;2.47;;;2.13;;
11121;SDS011;5615;49.304;10.576;2023-07-16T12:28:14;4.20;;;2.15;;
11121;SDS011;5615;49.304;10.576;2023-07-16T12:30:40;3.33;;;2.15;;
11121;SDS011;5615;49.304;10.576;2023-07-16T12:33:07;3.38;;;2.17;;
11121;SDS011;5615;49.304;10.576;2023-07-16T12:35:34;2.85;;;2.30;;
11121;SDS011;5615;49.304;10.576;2023-07-16T12:38:02;3.60;;;2.30;;
11121;SDS011;5615;49.304;10.576;2023-07-16T12:40:29;5.75;;;2.20;;
11121;SDS011;5615;49.304;10.576;2023-07-16T12:42:56;3.08;;;2.10;;
11121;SDS011;5615;49.304;10.576;2023-07-16T12:45:22;3.03;;;2.00;;
11121;SDS011;5615;49.304;10.576;2023-07-16T12:47:49;4.97;;;2.25;;
11121;SDS011;5615;49.304;10.576;2023-07-16T12:50:15;4.07;;;2.10;;
11121;SDS011;5615;49.304;10.576;2023-07-16T12:52:43;4.25;;;2.40;;
11121;SDS011;5615;49.304;10.576;2023-07-16T12:55:11;3.00;;;2.30;;
11121;SDS011;5615;49.304;10.576;2023-07-16T12:57:38;3.95;;;2.30;;
11121;SDS011;5615;49.304;10.576;2023-07-16T13:00:07;4.95;;;2.33;;
11121;SDS011;5615;49.304;10.576;2023-07-16T13:02:34;4.82;;;2.30;;
11121;SDS011;5615;49.304;10.576;2023-07-16T13:05:02;5.78;;;2.50;;
11121;SDS011;5615;49.304;10.576;2023-07-16T13:07:29;2.92;;;2.42;;
11121;SDS011;5615;49.304;10.576;2023-07-16T13:09:57;2.92;;;2.10;;
11121;SDS011;5615;49.304;10.576;2023-07-16T13:12:25;3.17;;;2.20;;
11121;SDS011;5615;49.304;10.576;2023-07-16T13:14:51;4.07;;;2.53;;
11121;SDS011;5615;49.304;10.576;2023-07-16T13:17:18;4.25;;;2.50;;
11121;SDS011;5615;49.304;10.576;2023-07-16T13:19:45;3.28;;;2.35;;
11121;SDS011;5615;49.304;10.576;2023-07-16T13:22:12;4.13;;;2.33;;
11121;SDS011;5615;49.304;10.576;2023-07-16T13:24:40;3.38;;;2.28;;
11121;SDS011;5615;49.304;10.576;2023-07-16T13:27:06;2.90;;;2.40;;
11121;SDS011;5615;49.304;10.576;2023-07-16T13:29:36;3.25;;;2.40;;
11121;SDS011;5615;49.304;10.576;2023-07-16T13:32:03;3.67;;;2.42;;
11121;SDS011;5615;49.304;10.576;2023-07-16T13:34:30;3.97;;;2.33;;
11121;SDS011;5615;49.304;10.576;2023-07-16T13:36:57;3.63;;;2.38;;
11121;SDS011;5615;49.304;10.576;2023-07-16T13:39:23;3.05;;;2.40;;
11121;SDS011;5615;49.304;10.576;2023-07-16T13:41:50;4.13;;;2.78;;
11121;SDS011;5615;49.304;10.576;2023-07-16T13:44:17;6.68;;;2.70;;
11121;SDS011;5615;49.304;10.576;2023-07-16T13:46:45;6.10;;;2.30;;
11121;SDS011;5615;49.304;10.576;2023-07-16T13:49:12;2.63;;;2.30;;
11121;SDS011;5615;49.304;10.576;2023-07-16T13:51:39;5.28;;;2.50;;
11121;SDS011;5615;49.304;10.576;2023-07-16T13:54:05;3.70;;;2.47;;
11121;SDS011;5615;49.304;10.576;2023-07-16T13:56:32;3.63;;;2.50;;
11121;SDS011;5615;49.304;10.576;2023-07-16T13:58:59;3.72;;;2.40;;
11121;SDS011;5615;49.304;10.576;2023-07-16T14:01:25;4.07;;;2.38;;
11121;SDS011;5615;49.304;10.576;2023-07-16T14:03:53;4.60;;;2.38;;
11121;SDS011;5615;49.304;10.576;2023-07-16T14:06:20;4.47;;;2.13;;
11121;SDS011;5615;49.304;10.576;2023-07-16T14:08:46;5.72;;;2.50;;
11121;SDS011;5615;49.304;10.576;2023-07-16T14:11:13;3.13;;;2.30;;
11121;SDS011;5615;49.304;10.576;2023-07-16T14:13:41;3.60;;;2.63;;
11121;SDS011;5615;49.304;10.576;2023-07-16T14:16:07;2.70;;;2.10;;
11121;SDS011;5615;49.304;10.576;2023-07-16T14:18:34;3.35;;;2.40;;
11121;SDS011;5615;49.304;10.576;2023-07-16T14:21:02;3.30;;;2.63;;
11121;SDS011;5615;49.304;10.576;2023-07-16T14:23:29;4.90;;;2.30;;
11121;SDS011;5615;49.304;10.576;2023-07-16T14:25:56;7.70;;;3.30;;
11121;SDS011;5615;49.304;10.576;2023-07-16T14:28:22;3.35;;;2.60;;
11121;SDS011;5615;49.304;10.576;2023-07-16T14:30:49;3.42;;;2.35;;
11121;SDS011;5615;49.304;10.576;2023-07-16T14:33:15;5.38;;;2.33;;
11121;SDS011;5615;49.304;10.576;2023-07-16T14:35:42;2.90;;;2.25;;
11121;SDS011;5615;49.304;10.576;2023-07-16T14:38:10;3.38;;;2.28;;
11121;SDS011;5615;49.304;10.576;2023-07-16T14:40:37;2.95;;;2.30;;
11121;SDS011;5615;49.304;10.576;2023-07-16T14:43:03;2.78;;;2.30;;
11121;SDS011;5615;49.304;10.576;2023-07-16T14:45:30;3.55;;;2.60;;
11121;SDS011;5615;49.304;10.576;2023-07-16T14:47:57;3.42;;;2.17;;
11121;SDS011;5615;49.304;10.576;2023-07-16T14:50:24;2.85;;;2.50;;